Time;durP1;ratioP1;P1;durP2;ratioP2;P2;SDS_P1;SDS_P2;PMS_P1;PMS_P2;Temp;Humidity;BMP_temperature;BMP_pressure;BME280_temperature;BME280_humidity;BME280_pressure;Samples;Min_cycle;Max_cycle;Signal;HPM_P1;HPM_P2
2021/11/21 00:01:43;;;;;;;109.05;21.50;;;2.30;99.90;;;;;;6044649;23;20027;-80
2021/11/21 00:04:11;;;;;;;77.85;17.52;;;2.30;99.90;;;;;;6021728;23;20427;-81
2021/11/21 00:06:39;;;;;;;63.33;15.48;;;2.30;99.90;;;;;;6039280;23;20807;-80
2021/11/21 00:09:07;;;;;;;70.53;16.13;;;2.20;99.90;;;;;;6010826;23;20023;-81
2021/11/21 00:11:35;;;;;;;88.78;20.45;;;2.20;99.90;;;;;;6037341;23;20463;-80
2021/11/21 00:14:03;;;;;;;56.75;16.38;;;2.20;99.90;;;;;;6032661;23;20024;-80
2021/11/21 00:16:30;;;;;;;67.53;15.18;;;2.30;99.90;;;;;;6018803;23;20414;-80
2021/11/21 00:18:58;;;;;;;43.33;15.43;;;2.10;99.90;;;;;;6010714;23;20027;-79
2021/11/21 00:21:26;;;;;;;40.67;13.85;;;2.30;99.90;;;;;;6016346;23;20019;-81
2021/11/21 00:23:54;;;;;;;45.15;11.02;;;2.20;99.90;;;;;;6017463;23;20511;-80
2021/11/21 00:26:22;;;;;;;58.70;14.85;;;2.20;99.90;;;;;;6012850;23;20027;-80
2021/11/21 00:28:50;;;;;;;44.38;15.35;;;2.10;99.90;;;;;;6017236;23;20443;-80
2021/11/21 00:31:19;;;;;;;50.30;14.32;;;2.10;99.90;;;;;;6009955;23;20047;-80
2021/11/21 00:33:48;;;;;;;49.33;11.93;;;1.90;99.90;;;;;;5983480;23;20460;-80
2021/11/21 00:36:15;;;;;;;40.42;9.82;;;1.90;99.90;;;;;;5984234;23;20026;-81
2021/11/21 00:38:43;;;;;;;50.17;13.95;;;2.00;99.90;;;;;;6011939;23;20023;-80
2021/11/21 00:41:11;;;;;;;36.53;11.07;;;1.90;99.90;;;;;;6016459;23;20440;-80
2021/11/21 00:43:39;;;;;;;48.80;11.00;;;2.00;99.90;;;;;;6008824;23;20028;-80
2021/11/21 00:46:06;;;;;;;46.42;13.25;;;1.90;99.90;;;;;;6013635;23;20027;-80
2021/11/21 00:48:37;;;;;;;36.83;10.65;;;1.90;99.90;;;;;;6018305;23;20364;-80
2021/11/21 00:51:05;;;;;;;46.45;13.60;;;1.90;99.90;;;;;;6011264;23;20028;-80
2021/11/21 00:53:36;;;;;;;28.98;11.65;;;1.90;99.90;;;;;;6016223;23;20016;-80
2021/11/21 00:56:04;;;;;;;33.33;10.60;;;2.00;99.90;;;;;;6018798;23;20015;-80
2021/11/21 00:58:33;;;;;;;43.50;14.93;;;2.00;99.90;;;;;;6011742;23;20031;-80
2021/11/21 01:01:03;;;;;;;58.75;14.65;;;2.10;99.90;;;;;;6018066;23;20023;-81
2021/11/21 01:03:31;;;;;;;35.00;10.50;;;2.00;99.90;;;;;;6009207;23;20487;-80
2021/11/21 01:06:00;;;;;;;44.17;11.98;;;2.00;99.90;;;;;;6030025;23;20023;-80
2021/11/21 01:08:28;;;;;;;35.08;10.90;;;2.00;99.90;;;;;;6017970;23;20027;-80
2021/11/21 01:11:02;;;;;;;41.85;10.02;;;2.00;99.90;;;;;;6010885;23;20032;-81
2021/11/21 01:13:30;;;;;;;90.78;18.02;;;2.00;99.90;;;;;;6026513;23;20026;-81
2021/11/21 01:15:58;;;;;;;25.52;9.65;;;2.10;99.90;;;;;;5966199;23;20022;-80
2021/11/21 01:18:25;;;;;;;29.92;13.68;;;2.10;99.90;;;;;;6041169;23;20059;-80
2021/11/21 01:20:53;;;;;;;38.58;10.27;;;2.10;99.90;;;;;;6046607;23;20023;-80
2021/11/21 01:23:21;;;;;;;25.35;11.80;;;2.10;99.90;;;;;;6037491;23;20024;-80
2021/11/21 01:25:49;;;;;;;31.92;14.75;;;2.00;99.90;;;;;;6044437;23;20022;-80
2021/11/21 01:28:17;;;;;;;66.65;11.50;;;2.00;99.90;;;;;;6012234;23;20015;-80
2021/11/21 01:30:45;;;;;;;35.65;6.82;;;2.10;99.90;;;;;;6040901;23;20030;-81
2021/11/21 01:33:14;;;;;;;54.75;15.55;;;2.00;99.90;;;;;;6046181;23;20452;-81
2021/11/21 01:35:42;;;;;;;52.80;14.20;;;1.90;99.90;;;;;;6011642;23;20359;-80
2021/11/21 01:38:10;;;;;;;86.15;15.85;;;2.00;99.90;;;;;;6042120;23;20031;-81
2021/11/21 01:40:38;;;;;;;31.55;12.27;;;2.00;99.90;;;;;;6045721;23;20026;-79
2021/11/21 01:43:07;;;;;;;26.80;11.15;;;1.90;99.90;;;;;;6038890;23;20047;-79
2021/11/21 01:45:34;;;;;;;76.57;11.85;;;2.00;99.90;;;;;;6044785;23;20011;-79
2021/11/21 01:48:03;;;;;;;49.15;16.48;;;1.90;99.90;;;;;;5988139;23;20019;-79
2021/11/21 01:50:44;;;;;;;57.53;12.98;;;1.90;99.90;;;;;;6040969;23;20019;-79
2021/11/21 01:54:18;;;;;;;55.05;10.40;;;1.90;99.90;;;;;;6042343;23;20359;-79
2021/11/21 01:57:19;;;;;;;39.47;10.95;;;1.90;99.90;;;;;;6046606;23;20012;-79
2021/11/21 02:00:03;;;;;;;36.72;13.10;;;2.00;99.90;;;;;;6011053;23;20031;-79
2021/11/21 02:02:40;;;;;;;39.17;14.32;;;1.90;99.90;;;;;;6040696;23;20343;-79
2021/11/21 02:05:09;;;;;;;41.50;11.93;;;1.90;99.90;;;;;;6046609;23;20023;-79
2021/11/21 02:07:37;;;;;;;49.70;11.55;;;1.90;99.90;;;;;;6036798;23;20023;-79
2021/11/21 02:10:06;;;;;;;46.25;14.82;;;1.90;99.90;;;;;;6041737;23;20023;-79
2021/11/21 02:12:34;;;;;;;40.13;12.35;;;1.90;99.90;;;;;;6019954;23;20016;-79
2021/11/21 02:15:07;;;;;;;28.33;10.27;;;2.00;99.90;;;;;;6039212;23;20023;-79
2021/11/21 02:17:35;;;;;;;84.47;15.30;;;1.90;99.90;;;;;;6021849;23;20335;-79
2021/11/21 02:20:05;;;;;;;24.15;10.13;;;1.90;99.90;;;;;;6048139;23;20039;-79
2021/11/21 02:22:33;;;;;;;21.95;12.43;;;1.80;99.90;;;;;;6043077;23;20463;-79
2021/11/21 02:25:00;;;;;;;79.88;15.98;;;1.90;99.90;;;;;;6047720;23;20034;-79
2021/11/21 02:27:30;;;;;;;60.25;11.18;;;1.90;99.90;;;;;;6038914;23;20030;-79
2021/11/21 02:29:59;;;;;;;17.88;9.38;;;2.00;99.90;;;;;;6045254;23;20027;-79
2021/11/21 02:32:27;;;;;;;21.27;11.15;;;2.00;99.90;;;;;;6023406;23;20466;-79
2021/11/21 02:34:56;;;;;;;40.00;13.20;;;2.00;99.90;;;;;;6038114;23;20027;-79
2021/11/21 02:37:24;;;;;;;42.63;13.60;;;2.00;99.90;;;;;;6022482;23;20015;-79
2021/11/21 02:39:53;;;;;;;28.83;10.75;;;2.10;99.90;;;;;;6046861;23;20452;-80
2021/11/21 02:42:30;;;;;;;46.03;10.52;;;2.10;99.90;;;;;;6060584;23;20027;-79
2021/11/21 02:44:58;;;;;;;70.90;11.95;;;2.00;99.90;;;;;;6013746;23;20026;-79
2021/11/21 02:47:32;;;;;;;20.67;10.85;;;1.90;99.90;;;;;;6038072;23;20031;-79
2021/11/21 02:50:03;;;;;;;97.07;10.38;;;1.90;99.90;;;;;;6044520;23;20038;-79
2021/11/21 02:52:31;;;;;;;63.78;11.55;;;1.90;99.90;;;;;;6047938;23;20023;-79
2021/11/21 02:54:59;;;;;;;81.00;13.77;;;1.90;99.90;;;;;;6040320;23;20031;-79
2021/11/21 02:57:28;;;;;;;50.08;11.00;;;1.90;99.90;;;;;;6021811;23;20015;-80
2021/11/21 02:59:55;;;;;;;36.85;10.65;;;1.90;99.90;;;;;;6022853;23;20050;-79
2021/11/21 03:02:23;;;;;;;27.10;11.30;;;2.00;99.90;;;;;;6043352;23;20042;-79
2021/11/21 03:04:52;;;;;;;32.08;10.43;;;2.00;99.90;;;;;;6047543;23;20011;-79
2021/11/21 03:07:20;;;;;;;24.98;9.57;;;2.10;99.90;;;;;;6014750;23;20023;-79
2021/11/21 03:09:49;;;;;;;47.75;12.02;;;2.00;99.90;;;;;;6019903;23;20034;-79
2021/11/21 03:12:22;;;;;;;20.88;10.00;;;2.00;99.90;;;;;;6047997;23;20011;-79
2021/11/21 03:14:51;;;;;;;47.92;10.65;;;2.10;99.90;;;;;;6016389;23;20035;-79
2021/11/21 03:17:20;;;;;;;45.03;10.57;;;2.00;99.90;;;;;;6047811;23;20725;-79
2021/11/21 03:19:49;;;;;;;39.42;9.13;;;2.00;99.90;;;;;;6036979;23;20026;-79
2021/11/21 03:22:17;;;;;;;49.35;12.57;;;2.00;99.90;;;;;;6043904;23;20023;-79
2021/11/21 03:24:45;;;;;;;53.22;11.77;;;1.90;99.90;;;;;;6047043;23;20026;-79
2021/11/21 03:27:14;;;;;;;58.45;12.73;;;1.80;99.90;;;;;;6039428;23;20038;-79
2021/11/21 03:29:41;;;;;;;33.92;12.25;;;2.00;99.90;;;;;;6045239;23;20027;-79
2021/11/21 03:32:09;;;;;;;39.97;9.15;;;1.90;99.90;;;;;;6013010;23;20016;-79
2021/11/21 03:34:38;;;;;;;55.67;11.90;;;1.80;99.90;;;;;;6012151;23;20490;-79
2021/11/21 03:37:07;;;;;;;54.95;14.57;;;1.80;99.90;;;;;;6047720;23;20372;-79
2021/11/21 03:39:35;;;;;;;16.13;9.65;;;1.80;99.90;;;;;;6037187;23;20023;-79
2021/11/21 03:42:03;;;;;;;22.15;8.23;;;1.80;99.90;;;;;;6043881;23;20031;-79
2021/11/21 03:44:32;;;;;;;31.75;11.48;;;1.80;99.90;;;;;;6047348;23;20026;-79
2021/11/21 03:47:00;;;;;;;16.50;8.40;;;1.70;99.90;;;;;;6015250;23;20035;-79
2021/11/21 03:49:28;;;;;;;26.35;9.52;;;1.80;99.90;;;;;;6046239;23;20023;-79
2021/11/21 03:51:56;;;;;;;25.70;11.25;;;1.80;99.90;;;;;;6047023;23;20015;-79
2021/11/21 03:54:23;;;;;;;13.00;8.68;;;1.70;99.90;;;;;;6017118;23;20525;-79
2021/11/21 03:56:51;;;;;;;27.13;10.63;;;1.80;99.90;;;;;;6047297;23;20587;-79
2021/11/21 03:59:19;;;;;;;18.65;10.65;;;1.90;99.90;;;;;;6039127;23;20027;-79
2021/11/21 04:01:48;;;;;;;21.38;11.30;;;1.80;99.90;;;;;;6045187;23;20455;-79
2021/11/21 04:04:18;;;;;;;19.10;10.93;;;1.80;99.90;;;;;;6047554;23;20027;-79
2021/11/21 04:06:45;;;;;;;11.27;7.63;;;1.70;99.90;;;;;;6016402;23;20031;-79
2021/11/21 04:09:13;;;;;;;19.80;8.95;;;1.70;99.90;;;;;;6046668;23;20019;-79
2021/11/21 04:11:41;;;;;;;17.85;9.00;;;1.70;99.90;;;;;;6037364;23;20038;-79
2021/11/21 04:14:09;;;;;;;16.42;6.93;;;1.70;99.90;;;;;;6039531;23;20028;-79
2021/11/21 04:16:37;;;;;;;13.05;7.03;;;1.70;99.90;;;;;;6047846;23;20015;-79
2021/11/21 04:19:06;;;;;;;15.45;8.35;;;1.70;99.90;;;;;;6035520;23;20019;-79
2021/11/21 04:21:35;;;;;;;18.55;9.77;;;1.50;99.90;;;;;;6045385;23;20011;-79
2021/11/21 04:24:05;;;;;;;16.35;9.10;;;1.60;99.90;;;;;;6046652;23;20454;-79
2021/11/21 04:26:33;;;;;;;17.17;9.15;;;1.50;99.90;;;;;;6041540;23;20055;-79
2021/11/21 04:29:00;;;;;;;13.43;10.50;;;1.50;99.90;;;;;;6022234;23;20019;-79
2021/11/21 04:31:30;;;;;;;40.03;9.45;;;1.50;99.90;;;;;;6037951;23;20030;-79
2021/11/21 04:33:57;;;;;;;27.13;12.77;;;1.50;99.90;;;;;;6043919;23;20046;-79
2021/11/21 04:36:25;;;;;;;20.70;11.48;;;1.40;99.90;;;;;;6046935;23;20019;-79
2021/11/21 04:38:53;;;;;;;16.92;10.80;;;1.40;99.90;;;;;;6039486;23;20027;-79
2021/11/21 04:41:20;;;;;;;13.32;9.60;;;1.40;99.90;;;;;;6046750;23;20023;-79
2021/11/21 04:43:48;;;;;;;11.85;7.60;;;1.30;99.90;;;;;;6036227;23;20042;-79
2021/11/21 04:46:16;;;;;;;11.00;9.70;;;1.20;99.90;;;;;;6035380;23;20031;-79
2021/11/21 04:48:45;;;;;;;8.68;7.50;;;1.30;99.90;;;;;;6046826;23;20053;-79
2021/11/21 04:51:12;;;;;;;9.32;7.20;;;1.10;99.90;;;;;;6038273;23;20486;-79
2021/11/21 04:53:40;;;;;;;9.70;7.40;;;1.10;99.90;;;;;;6044463;23;20166;-80
2021/11/21 04:56:08;;;;;;;10.75;6.75;;;1.00;99.90;;;;;;6046793;23;20451;-79
2021/11/21 04:58:35;;;;;;;10.77;7.40;;;1.00;99.90;;;;;;6041385;23;20038;-80
2021/11/21 05:01:03;;;;;;;17.35;7.97;;;1.00;99.90;;;;;;6046599;23;20011;-79
2021/11/21 05:03:31;;;;;;;11.98;8.50;;;1.00;99.90;;;;;;6037388;23;20035;-79
2021/11/21 05:05:59;;;;;;;15.15;8.40;;;1.00;99.90;;;;;;6011478;23;20020;-79
2021/11/21 05:08:27;;;;;;;20.23;7.95;;;1.10;99.90;;;;;;6046401;23;20022;-79
2021/11/21 05:10:54;;;;;;;35.67;10.93;;;1.00;99.90;;;;;;6015062;23;20023;-79
2021/11/21 05:13:22;;;;;;;22.17;8.10;;;0.90;99.90;;;;;;6041961;23;20034;-79
2021/11/21 05:15:50;;;;;;;9.13;7.32;;;0.90;99.90;;;;;;6045553;23;20015;-79
2021/11/21 05:18:18;;;;;;;30.67;9.90;;;0.90;99.90;;;;;;6042170;23;20035;-79
2021/11/21 05:20:45;;;;;;;54.58;11.48;;;0.90;99.90;;;;;;6046021;23;20023;-79
2021/11/21 05:23:13;;;;;;;32.83;13.00;;;0.80;99.90;;;;;;6037995;23;20030;-79
2021/11/21 05:25:41;;;;;;;36.08;8.45;;;0.90;99.90;;;;;;6058943;23;20314;-79
2021/11/21 05:28:09;;;;;;;98.88;14.43;;;0.90;99.90;;;;;;6021154;23;20023;-79
2021/11/21 05:30:37;;;;;;;94.95;16.33;;;0.80;99.90;;;;;;6039422;23;20027;-79
2021/11/21 05:33:05;;;;;;;120.13;14.98;;;0.80;99.90;;;;;;6036611;23;20016;-79
2021/11/21 05:35:32;;;;;;;20.50;8.40;;;0.90;99.90;;;;;;6035947;23;20354;-79
2021/11/21 05:38:00;;;;;;;76.30;9.27;;;0.90;99.90;;;;;;6042769;23;20841;-79
2021/11/21 05:40:27;;;;;;;43.97;9.27;;;0.80;99.90;;;;;;6046612;23;20012;-79
2021/11/21 05:42:55;;;;;;;47.95;7.85;;;0.90;99.90;;;;;;6039562;23;20038;-79
2021/11/21 05:45:24;;;;;;;45.03;9.50;;;0.80;99.90;;;;;;6045745;23;20019;-79
2021/11/21 05:47:52;;;;;;;35.90;8.13;;;0.70;99.90;;;;;;6068644;23;20066;-79
2021/11/21 05:50:20;;;;;;;86.70;9.45;;;0.60;99.90;;;;;;6041444;23;20031;-79
2021/11/21 05:52:49;;;;;;;47.03;7.45;;;0.70;99.90;;;;;;6045779;23;20015;-79
2021/11/21 05:55:18;;;;;;;155.05;15.82;;;0.50;99.90;;;;;;6038216;23;20359;-79
2021/11/21 05:57:46;;;;;;;130.30;20.50;;;0.50;99.90;;;;;;6018910;23;20577;-79
2021/11/21 06:00:20;;;;;;;47.40;9.35;;;0.40;99.90;;;;;;6046538;23;20033;-79
2021/11/21 06:02:48;;;;;;;54.22;10.35;;;0.30;99.90;;;;;;6039684;23;20031;-79
2021/11/21 06:05:16;;;;;;;28.00;6.63;;;0.30;99.90;;;;;;6046530;23;20019;-79
2021/11/21 06:07:44;;;;;;;25.52;7.10;;;0.20;99.90;;;;;;6036266;23;20027;-79
2021/11/21 06:10:13;;;;;;;54.10;9.45;;;0.10;99.90;;;;;;6042128;23;20038;-79
2021/11/21 06:12:41;;;;;;;26.67;6.95;;;0.00;99.90;;;;;;6041290;23;20038;-79
2021/11/21 06:15:10;;;;;;;16.50;5.15;;;0.00;99.90;;;;;;6038611;23;20020;-79
2021/11/21 06:17:39;;;;;;;91.43;10.90;;;-0.10;99.90;;;;;;5987669;23;20027;-79
2021/11/21 06:20:08;;;;;;;24.40;6.45;;;-0.10;99.90;;;;;;6045641;23;20011;-79
2021/11/21 06:22:37;;;;;;;46.58;8.80;;;-0.20;99.90;;;;;;6040305;23;20483;-79
2021/11/21 06:25:06;;;;;;;21.98;6.72;;;-0.20;99.90;;;;;;6045692;23;20034;-79
2021/11/21 06:27:34;;;;;;;16.80;6.18;;;-0.20;99.90;;;;;;6036981;23;20031;-79
2021/11/21 06:30:03;;;;;;;10.43;5.95;;;-0.30;99.90;;;;;;6042696;23;20533;-79
2021/11/21 06:32:31;;;;;;;10.00;5.05;;;-0.30;99.90;;;;;;6046397;23;20013;-79
2021/11/21 06:34:58;;;;;;;11.30;6.55;;;-0.30;99.90;;;;;;6039079;23;20337;-79
2021/11/21 06:37:26;;;;;;;8.35;6.82;;;-0.30;99.90;;;;;;6045255;23;20019;-79
2021/11/21 06:39:54;;;;;;;7.13;5.70;;;-0.30;99.90;;;;;;6045274;23;20062;-79
2021/11/21 06:42:21;;;;;;;7.70;6.05;;;-0.30;99.90;;;;;;6041586;23;20027;-79
2021/11/21 06:44:49;;;;;;;9.15;5.60;;;-0.20;99.90;;;;;;6045969;23;20045;-79
2021/11/21 06:47:18;;;;;;;50.03;6.75;;;-0.40;99.90;;;;;;6037949;23;20360;-79
2021/11/21 06:49:46;;;;;;;15.32;6.15;;;-0.40;99.90;;;;;;6010467;23;20035;-79
2021/11/21 06:52:15;;;;;;;13.98;6.55;;;-0.40;99.90;;;;;;6045880;23;20022;-79
2021/11/21 06:54:43;;;;;;;6.95;5.40;;;-0.40;99.90;;;;;;6039490;23;20027;-79
2021/11/21 06:57:11;;;;;;;7.10;5.97;;;-0.40;99.90;;;;;;6046286;23;20022;-79
2021/11/21 06:59:38;;;;;;;21.05;7.72;;;-0.40;99.90;;;;;;6036556;23;20023;-79
2021/11/21 07:02:06;;;;;;;9.45;4.78;;;-0.30;99.90;;;;;;6042376;23;20034;-79
2021/11/21 07:04:36;;;;;;;58.08;7.40;;;-0.30;99.90;;;;;;6047455;23;20026;-79
2021/11/21 07:07:07;;;;;;;6.80;6.30;;;-0.20;99.90;;;;;;6040783;23;20042;-79
2021/11/21 07:09:35;;;;;;;6.93;4.63;;;-0.20;99.90;;;;;;6045715;23;20023;-79
2021/11/21 07:12:04;;;;;;;5.97;5.38;;;-0.20;99.90;;;;;;6047849;23;20022;-79
2021/11/21 07:14:35;;;;;;;4.60;4.10;;;-0.30;99.90;;;;;;6038067;23;20030;-79
2021/11/21 07:17:04;;;;;;;7.15;5.55;;;-0.20;99.90;;;;;;6047932;23;20015;-79
2021/11/21 07:19:32;;;;;;;6.88;6.20;;;-0.20;99.90;;;;;;6038363;23;20030;-79
2021/11/21 07:22:00;;;;;;;6.25;5.68;;;-0.10;99.90;;;;;;6044715;23;20035;-79
2021/11/21 07:24:28;;;;;;;7.78;6.20;;;-0.10;99.90;;;;;;6047211;23;20035;-79
2021/11/21 07:26:57;;;;;;;5.60;4.63;;;-0.10;99.90;;;;;;6041157;23;20023;-79
2021/11/21 07:29:28;;;;;;;6.82;4.93;;;0.00;99.90;;;;;;6069048;23;20463;-79
2021/11/21 07:31:59;;;;;;;5.72;5.03;;;0.10;99.90;;;;;;5989224;23;20027;-79
2021/11/21 07:34:28;;;;;;;6.68;4.82;;;0.10;99.90;;;;;;6017398;23;20038;-78
2021/11/21 07:36:56;;;;;;;6.22;5.63;;;0.10;99.90;;;;;;6069987;23;20066;-79
2021/11/21 07:39:25;;;;;;;5.78;4.32;;;0.10;99.90;;;;;;6011835;23;20034;-79
2021/11/21 07:41:52;;;;;;;6.00;4.65;;;0.10;99.90;;;;;;6011937;23;20347;-79
2021/11/21 07:44:20;;;;;;;5.80;5.30;;;0.10;99.90;;;;;;6048006;23;20016;-79
2021/11/21 07:46:48;;;;;;;6.43;5.03;;;0.20;99.90;;;;;;6041397;23;20043;-79
2021/11/21 07:49:17;;;;;;;6.88;6.13;;;0.30;99.90;;;;;;6047651;23;20061;-79
2021/11/21 07:51:47;;;;;;;6.95;4.82;;;0.40;99.90;;;;;;6037368;23;20031;-79
2021/11/21 07:54:15;;;;;;;5.30;3.92;;;0.50;99.90;;;;;;6042672;23;20036;-79
2021/11/21 07:56:46;;;;;;;5.60;4.70;;;0.50;99.90;;;;;;6047539;23;20015;-79
2021/11/21 07:59:14;;;;;;;10.25;5.90;;;0.60;99.90;;;;;;6039562;23;20089;-79
2021/11/21 08:01:42;;;;;;;7.15;6.45;;;0.60;99.90;;;;;;6011490;23;20034;-79
2021/11/21 08:04:11;;;;;;;5.47;4.95;;;0.60;99.90;;;;;;6047124;23;20328;-79
2021/11/21 08:06:39;;;;;;;6.55;4.72;;;0.60;99.90;;;;;;6041780;23;20079;-79
2021/11/21 08:09:07;;;;;;;5.97;4.78;;;0.70;99.90;;;;;;6046338;23;20054;-79
2021/11/21 08:11:35;;;;;;;6.80;6.18;;;0.70;99.90;;;;;;6037509;23;20038;-79
2021/11/21 08:14:03;;;;;;;6.47;5.88;;;0.90;99.90;;;;;;6039549;23;20024;-79
2021/11/21 08:16:31;;;;;;;8.82;6.10;;;0.90;99.90;;;;;;6022278;23;20011;-79
2021/11/21 08:18:59;;;;;;;8.60;6.32;;;1.10;99.90;;;;;;6039856;23;20019;-79
2021/11/21 08:21:27;;;;;;;7.32;6.00;;;1.20;99.90;;;;;;6045803;23;20016;-79
2021/11/21 08:23:55;;;;;;;6.00;5.28;;;1.40;99.90;;;;;;6021116;23;20019;-79
2021/11/21 08:26:22;;;;;;;6.25;5.57;;;1.50;99.90;;;;;;6042583;23;20456;-79
2021/11/21 08:28:50;;;;;;;5.55;5.00;;;1.60;99.90;;;;;;6047119;23;20018;-79
2021/11/21 08:31:18;;;;;;;5.15;4.32;;;1.80;99.90;;;;;;6038593;23;20019;-79
2021/11/21 08:33:46;;;;;;;4.47;4.07;;;2.00;99.90;;;;;;6044259;23;20023;-79
2021/11/21 08:36:14;;;;;;;4.63;4.00;;;2.10;99.90;;;;;;6047208;23;20092;-79
2021/11/21 08:38:42;;;;;;;4.78;4.22;;;2.10;99.90;;;;;;6040259;23;20027;-79
2021/11/21 08:41:10;;;;;;;4.57;3.75;;;2.20;99.90;;;;;;6046674;23;20332;-79
2021/11/21 08:43:37;;;;;;;3.95;3.58;;;2.20;99.90;;;;;;6037525;23;20023;-79
2021/11/21 08:46:05;;;;;;;4.50;3.92;;;2.40;99.90;;;;;;6043482;23;20031;-79
2021/11/21 08:48:34;;;;;;;3.90;3.60;;;2.50;99.90;;;;;;6046434;23;20011;-79
2021/11/21 08:51:03;;;;;;;3.63;3.33;;;2.60;99.90;;;;;;6011530;23;20038;-79
2021/11/21 08:53:30;;;;;;;5.05;4.43;;;2.70;99.90;;;;;;6044946;23;20016;-79
2021/11/21 08:55:58;;;;;;;4.10;3.10;;;2.80;99.90;;;;;;6047059;23;20442;-79
2021/11/21 08:58:26;;;;;;;3.92;3.47;;;2.90;99.90;;;;;;6042066;23;20026;-79
2021/11/21 09:00:54;;;;;;;4.03;3.50;;;3.00;99.90;;;;;;6046494;23;20444;-79
2021/11/21 09:03:21;;;;;;;3.53;3.25;;;3.10;99.90;;;;;;6037981;23;20023;-79
2021/11/21 09:05:49;;;;;;;4.00;3.70;;;3.20;99.90;;;;;;6019065;23;20459;-79
2021/11/21 09:08:17;;;;;;;2.97;2.72;;;3.30;99.90;;;;;;6011357;23;20027;-79
2021/11/21 09:10:45;;;;;;;3.58;3.10;;;3.30;99.90;;;;;;6039856;23;20032;-79
2021/11/21 09:13:13;;;;;;;3.90;3.33;;;3.40;99.90;;;;;;6018119;23;20059;-81
2021/11/21 09:15:40;;;;;;;4.03;3.67;;;3.60;99.90;;;;;;6011374;23;20035;-78
2021/11/21 09:18:08;;;;;;;3.03;2.83;;;4.20;99.90;;;;;;6043051;23;20343;-77
2021/11/21 09:20:37;;;;;;;2.90;2.70;;;4.50;99.90;;;;;;6046584;23;20026;-78
2021/11/21 09:23:10;;;;;;;2.70;2.50;;;4.60;99.90;;;;;;6038748;23;20451;-77
2021/11/21 09:25:39;;;;;;;3.65;3.35;;;4.50;99.90;;;;;;6044877;23;20019;-78
2021/11/21 09:28:07;;;;;;;3.20;2.72;;;4.40;99.90;;;;;;6046375;23;20458;-77
2021/11/21 09:30:34;;;;;;;2.92;2.75;;;4.40;99.90;;;;;;6040910;23;20023;-77
2021/11/21 09:33:18;;;;;;;1.95;1.85;;;4.40;99.90;;;;;;6011414;23;20490;-78
2021/11/21 09:36:27;;;;;;;2.90;2.63;;;4.70;99.90;;;;;;5988853;23;20032;-79
2021/11/21 09:39:19;;;;;;;3.25;3.00;;;4.60;99.90;;;;;;6013660;23;20027;-79
2021/11/21 09:41:47;;;;;;;2.95;2.70;;;4.50;99.90;;;;;;6037810;23;20031;-78
2021/11/21 09:44:15;;;;;;;3.80;3.50;;;4.60;99.90;;;;;;6046655;23;20031;-77
2021/11/21 09:46:43;;;;;;;2.90;2.70;;;4.70;99.90;;;;;;6041324;23;20027;-78
2021/11/21 09:49:12;;;;;;;2.35;2.15;;;4.70;99.90;;;;;;6046779;23;20340;-78
2021/11/21 09:51:40;;;;;;;2.72;2.53;;;4.90;99.90;;;;;;6037289;23;20043;-78
2021/11/21 09:54:07;;;;;;;2.55;2.35;;;5.10;99.90;;;;;;6042954;23;20031;-78
2021/11/21 09:56:35;;;;;;;3.60;3.30;;;5.10;99.90;;;;;;6047500;23;20012;-79
2021/11/21 09:59:03;;;;;;;2.15;1.95;;;5.10;99.90;;;;;;6040010;23;20024;-78
2021/11/21 10:01:40;;;;;;;3.03;2.80;;;5.20;99.90;;;;;;6011948;23;20023;-78
2021/11/21 10:04:10;;;;;;;2.65;2.28;;;5.20;99.90;;;;;;6045846;23;20020;-78
2021/11/21 10:06:48;;;;;;;3.03;2.50;;;5.40;99.90;;;;;;6040243;23;20031;-80
2021/11/21 10:09:19;;;;;;;3.60;3.17;;;5.70;99.90;;;;;;6034089;23;20019;-79
2021/11/21 10:12:07;;;;;;;2.42;2.17;;;5.60;99.90;;;;;;6035617;23;20028;-80
2021/11/21 10:14:53;;;;;;;2.60;2.40;;;5.70;99.90;;;;;;6028226;23;20039;-80
2021/11/21 10:17:28;;;;;;;3.25;3.00;;;5.70;99.90;;;;;;5986703;23;20023;-79
2021/11/21 10:20:11;;;;;;;3.47;3.17;;;5.70;99.90;;;;;;5989503;24;20016;-80
2021/11/21 10:23:04;;;;;;;4.00;3.05;;;5.70;99.90;;;;;;5984770;23;20043;-80
2021/11/21 10:25:32;;;;;;;3.97;3.60;;;5.90;99.90;;;;;;5989199;23;20341;-77
2021/11/21 10:28:23;;;;;;;3.13;2.85;;;5.90;99.90;;;;;;5989148;24;20019;-76
2021/11/21 10:31:10;;;;;;;3.15;2.75;;;5.90;99.90;;;;;;5983911;23;20029;-80
2021/11/21 10:33:51;;;;;;;2.10;2.00;;;5.90;99.90;;;;;;5987609;23;20035;-80
2021/11/21 10:36:30;;;;;;;3.90;2.67;;;5.90;99.90;;;;;;5990066;24;20019;-80
2021/11/21 10:39:02;;;;;;;3.88;3.47;;;6.10;99.90;;;;;;5984053;23;20024;-80
2021/11/21 10:41:31;;;;;;;3.38;3.08;;;6.30;99.90;;;;;;5989649;23;20012;-79
2021/11/21 10:44:05;;;;;;;2.60;2.40;;;6.20;99.90;;;;;;5991841;24;20016;-79
2021/11/21 10:46:40;;;;;;;3.90;2.92;;;6.30;99.90;;;;;;5986468;23;20031;-80
2021/11/21 10:49:36;;;;;;;3.50;3.28;;;6.40;99.90;;;;;;5991594;24;20027;-81
2021/11/21 10:52:06;;;;;;;4.43;2.67;;;6.60;99.90;;;;;;5955768;24;20031;-82
2021/11/21 10:54:47;;;;;;;7.90;3.30;;;6.80;99.90;;;;;;5985973;23;20032;-82
2021/11/21 10:57:36;;;;;;;3.40;2.87;;;6.90;99.90;;;;;;5992060;24;20019;-82
2021/11/21 11:00:30;;;;;;;4.30;3.50;;;7.00;99.90;;;;;;5990389;23;20032;-82
2021/11/21 11:02:58;;;;;;;3.22;2.83;;;6.80;99.90;;;;;;5979684;23;20031;-82
2021/11/21 11:05:27;;;;;;;4.03;3.72;;;6.70;99.90;;;;;;6035420;23;20016;-82
2021/11/21 11:07:58;;;;;;;4.00;3.78;;;6.70;99.90;;;;;;5980634;24;20024;-81
2021/11/21 11:10:29;;;;;;;3.88;3.58;;;6.70;99.90;;;;;;5986354;23;20039;-80
2021/11/21 11:13:02;;;;;;;6.15;4.05;;;6.70;99.90;;;;;;6002574;23;20031;-81
2021/11/21 11:15:32;;;;;;;4.40;4.00;;;6.70;99.90;;;;;;6038880;23;20027;-80
2021/11/21 11:18:00;;;;;;;7.72;4.03;;;6.60;99.90;;;;;;6044520;23;20031;-80
2021/11/21 11:20:28;;;;;;;4.57;4.00;;;6.60;99.90;;;;;;6045927;23;20022;-80
2021/11/21 11:22:58;;;;;;;4.43;4.03;;;6.80;99.90;;;;;;6013108;23;20023;-80
2021/11/21 11:25:30;;;;;;;4.90;3.72;;;6.70;99.90;;;;;;6047458;23;20019;-81
2021/11/21 11:28:28;;;;;;;4.90;4.22;;;6.80;99.90;;;;;;6048118;23;20016;-81
2021/11/21 11:30:58;;;;;;;5.03;4.43;;;7.10;99.90;;;;;;6041332;23;20034;-81
2021/11/21 11:33:36;;;;;;;4.13;3.72;;;7.20;99.90;;;;;;6047335;23;20015;-81
2021/11/21 11:36:23;;;;;;;2.38;2.28;;;7.10;99.90;;;;;;6013742;23;20019;-82
2021/11/21 11:39:05;;;;;;;5.50;4.43;;;7.10;99.90;;;;;;6016770;23;20031;-81
2021/11/21 11:41:54;;;;;;;5.22;4.03;;;6.90;99.90;;;;;;6013321;23;20023;-81
2021/11/21 11:44:21;;;;;;;7.15;4.28;;;6.90;99.90;;;;;;6048150;23;20015;-81
2021/11/21 11:46:49;;;;;;;4.63;4.22;;;6.70;99.90;;;;;;6041601;23;20027;-81
2021/11/21 11:49:36;;;;;;;4.93;4.53;;;6.70;99.90;;;;;;6047141;23;20470;-81
2021/11/21 11:52:04;;;;;;;5.82;4.40;;;6.70;99.90;;;;;;6019794;23;20031;-81
2021/11/21 11:54:33;;;;;;;4.30;3.92;;;6.80;99.90;;;;;;6041813;23;20030;-82
2021/11/21 11:57:08;;;;;;;6.60;4.05;;;7.00;99.90;;;;;;6046702;23;20011;-81
2021/11/21 11:59:38;;;;;;;7.20;4.50;;;6.80;99.90;;;;;;6038571;23;20367;-81
2021/11/21 12:02:27;;;;;;;4.55;3.63;;;6.70;99.90;;;;;;6044856;23;20027;-75
2021/11/21 12:04:57;;;;;;;3.85;3.55;;;6.60;99.90;;;;;;6047880;23;20019;-84
2021/11/21 12:07:37;;;;;;;3.63;3.15;;;6.50;99.90;;;;;;6039073;23;20027;-83
2021/11/21 12:10:18;;;;;;;4.32;4.00;;;6.40;99.90;;;;;;6043670;23;20038;-82
2021/11/21 12:13:01;;;;;;;6.15;5.05;;;6.50;99.90;;;;;;6012172;23;20023;-81
2021/11/21 12:15:43;;;;;;;7.75;5.20;;;6.40;99.90;;;;;;6038135;23;20464;-82
2021/11/21 12:18:12;;;;;;;5.90;5.25;;;6.50;99.90;;;;;;6043232;23;20038;-84
2021/11/21 12:20:48;;;;;;;6.03;5.32;;;6.30;99.90;;;;;;6046590;23;20026;-83
2021/11/21 12:23:41;;;;;;;8.05;4.53;;;6.20;99.90;;;;;;6037949;23;20042;-83
2021/11/21 12:26:32;;;;;;;9.30;5.63;;;6.00;99.90;;;;;;6036562;23;20355;-84
2021/11/21 12:29:01;;;;;;;4.72;4.40;;;6.10;99.90;;;;;;6047379;23;20011;-82
2021/11/21 12:31:34;;;;;;;4.93;4.53;;;5.90;99.90;;;;;;6038038;23;20034;-84
2021/11/21 12:34:27;;;;;;;7.60;6.80;;;5.60;99.90;;;;;;6043829;23;20031;-83
2021/11/21 12:37:19;;;;;;;9.82;6.63;;;5.50;99.90;;;;;;6047336;23;20022;-84
2021/11/21 12:39:50;;;;;;;10.27;6.85;;;5.50;99.90;;;;;;6035709;23;20031;-83
2021/11/21 12:42:28;;;;;;;11.38;7.65;;;5.10;99.90;;;;;;6065023;23;20027;-83
2021/11/21 12:45:10;;;;;;;18.52;8.15;;;4.70;99.90;;;;;;6012490;23;20349;-84
2021/11/21 12:47:39;;;;;;;7.05;6.32;;;4.40;99.90;;;;;;6011525;23;20027;-84
2021/11/21 12:50:16;;;;;;;6.80;6.10;;;3.90;99.90;;;;;;6042922;23;20042;-83
2021/11/21 12:53:00;;;;;;;7.22;5.88;;;3.80;99.90;;;;;;6046663;23;20022;-84
2021/11/21 12:55:32;;;;;;;6.65;5.78;;;3.80;99.90;;;;;;6038335;23;20042;-84
2021/11/21 12:58:00;;;;;;;7.55;6.53;;;3.70;99.90;;;;;;6011939;23;20044;-82
2021/11/21 13:00:32;;;;;;;8.57;5.93;;;3.70;99.90;;;;;;6046256;23;20027;-84
2021/11/21 13:03:20;;;;;;;7.03;6.05;;;3.70;99.90;;;;;;6062378;23;20497;-83
2021/11/21 13:06:00;;;;;;;14.23;8.93;;;3.70;99.90;;;;;;6012821;23;20030;-83
2021/11/21 13:08:30;;;;;;;10.10;7.55;;;3.60;99.90;;;;;;5991173;23;20027;-82